sensor_id;sensor_type;location;lat;lon;timestamp;temperature;humidity
53599;DHT22;39485;45.702;11.364;2023-09-12T00:00:06;19.90;99.90
53599;DHT22;39485;45.702;11.364;2023-09-12T00:02:32;19.90;99.90
53599;DHT22;39485;45.702;11.364;2023-09-12T00:04:57;19.90;99.90
53599;DHT22;39485;45.702;11.364;2023-09-12T00:07:23;19.90;99.90
53599;DHT22;39485;45.702;11.364;2023-09-12T00:09:49;19.80;99.90
53599;DHT22;39485;45.702;11.364;2023-09-12T00:12:15;19.80;99.90
53599;DHT22;39485;45.702;11.364;2023-09-12T00:14:41;19.80;99.90
53599;DHT22;39485;45.702;11.364;2023-09-12T00:17:07;19.80;99.90
53599;DHT22;39485;45.702;11.364;2023-09-12T00:19:32;19.80;99.90
53599;DHT22;39485;45.702;11.364;2023-09-12T00:21:58;19.80;99.90
53599;DHT22;39485;45.702;11.364;2023-09-12T00:24:24;19.80;99.90
53599;DHT22;39485;45.702;11.364;2023-09-12T00:26:49;19.80;99.90
53599;DHT22;39485;45.702;11.364;2023-09-12T00:29:15;19.70;99.90
53599;DHT22;39485;45.702;11.364;2023-09-12T00:31:41;19.70;99.90
53599;DHT22;39485;45.702;11.364;2023-09-12T00:34:06;19.70;99.90
53599;DHT22;39485;45.702;11.364;2023-09-12T00:36:32;19.70;99.90
53599;DHT22;39485;45.702;11.364;2023-09-12T00:38:58;19.70;99.90
53599;DHT22;39485;45.702;11.364;2023-09-12T00:41:24;19.70;99.90
53599;DHT22;39485;45.702;11.364;2023-09-12T00:43:49;19.70;99.90
53599;DHT22;39485;45.702;11.364;2023-09-12T00:46:18;19.70;99.90
53599;DHT22;39485;45.702;11.364;2023-09-12T00:51:20;19.70;99.90
53599;DHT22;39485;45.702;11.364;2023-09-12T00:53:47;19.70;99.90
53599;DHT22;39485;45.702;11.364;2023-09-12T00:56:13;19.60;99.90
53599;DHT22;39485;45.702;11.364;2023-09-12T00:58:39;19.70;99.90
53599;DHT22;39485;45.702;11.364;2023-09-12T01:01:05;19.70;99.90
53599;DHT22;39485;45.702;11.364;2023-09-12T01:03:31;19.70;99.90
53599;DHT22;39485;45.702;11.364;2023-09-12T01:05:59;19.70;99.90
53599;DHT22;39485;45.702;11.364;2023-09-12T01:08:25;19.70;99.90
53599;DHT22;39485;45.702;11.364;2023-09-12T01:10:52;19.70;99.90
53599;DHT22;39485;45.702;11.364;2023-09-12T01:13:19;19.70;99.90
53599;DHT22;39485;45.702;11.364;2023-09-12T01:15:45;19.70;99.90
53599;DHT22;39485;45.702;11.364;2023-09-12T01:18:11;19.70;99.90
53599;DHT22;39485;45.702;11.364;2023-09-12T01:20:39;19.70;99.90
53599;DHT22;39485;45.702;11.364;2023-09-12T01:26:41;19.70;99.90
53599;DHT22;39485;45.702;11.364;2023-09-12T01:29:13;19.60;99.90
53599;DHT22;39485;45.702;11.364;2023-09-12T01:31:40;19.60;99.90
53599;DHT22;39485;45.702;11.364;2023-09-12T01:34:10;19.60;99.90
53599;DHT22;39485;45.702;11.364;2023-09-12T01:36:37;19.60;99.90
53599;DHT22;39485;45.702;11.364;2023-09-12T01:39:03;19.50;99.90
53599;DHT22;39485;45.702;11.364;2023-09-12T01:41:31;19.50;99.90
53599;DHT22;39485;45.702;11.364;2023-09-12T01:43:59;19.50;99.90
53599;DHT22;39485;45.702;11.364;2023-09-12T01:46:26;19.40;99.90
53599;DHT22;39485;45.702;11.364;2023-09-12T01:48:53;19.40;99.90
53599;DHT22;39485;45.702;11.364;2023-09-12T01:51:22;19.40;99.90
53599;DHT22;39485;45.702;11.364;2023-09-12T01:53:49;19.40;99.90
53599;DHT22;39485;45.702;11.364;2023-09-12T01:56:15;19.30;99.90
53599;DHT22;39485;45.702;11.364;2023-09-12T01:58:40;19.30;99.90
53599;DHT22;39485;45.702;11.364;2023-09-12T02:01:06;19.30;99.90
53599;DHT22;39485;45.702;11.364;2023-09-12T02:03:32;19.30;99.90
53599;DHT22;39485;45.702;11.364;2023-09-12T02:05:57;19.30;99.90
53599;DHT22;39485;45.702;11.364;2023-09-12T02:08:23;19.20;99.90
53599;DHT22;39485;45.702;11.364;2023-09-12T02:10:49;19.20;99.90
53599;DHT22;39485;45.702;11.364;2023-09-12T02:13:14;19.20;99.90
53599;DHT22;39485;45.702;11.364;2023-09-12T02:15:40;19.20;99.90
53599;DHT22;39485;45.702;11.364;2023-09-12T02:18:06;19.20;99.90
53599;DHT22;39485;45.702;11.364;2023-09-12T02:20:32;19.20;99.90
53599;DHT22;39485;45.702;11.364;2023-09-12T02:22:57;19.20;99.90
53599;DHT22;39485;45.702;11.364;2023-09-12T02:25:23;19.20;99.90
53599;DHT22;39485;45.702;11.364;2023-09-12T02:27:49;19.20;99.90
53599;DHT22;39485;45.702;11.364;2023-09-12T02:30:14;19.20;99.90
53599;DHT22;39485;45.702;11.364;2023-09-12T02:32:42;19.20;99.90
53599;DHT22;39485;45.702;11.364;2023-09-12T02:35:08;19.20;99.90
53599;DHT22;39485;45.702;11.364;2023-09-12T02:37:34;19.20;99.90
53599;DHT22;39485;45.702;11.364;2023-09-12T02:40:00;19.20;99.90
53599;DHT22;39485;45.702;11.364;2023-09-12T02:42:26;19.20;99.90
53599;DHT22;39485;45.702;11.364;2023-09-12T02:44:51;19.10;99.90
53599;DHT22;39485;45.702;11.364;2023-09-12T02:47:17;19.10;99.90
53599;DHT22;39485;45.702;11.364;2023-09-12T02:49:43;19.10;99.90
53599;DHT22;39485;45.702;11.364;2023-09-12T02:52:09;19.10;99.90
53599;DHT22;39485;45.702;11.364;2023-09-12T02:54:34;19.10;99.90
53599;DHT22;39485;45.702;11.364;2023-09-12T02:57:00;19.10;99.90
53599;DHT22;39485;45.702;11.364;2023-09-12T02:59:26;19.10;99.90
53599;DHT22;39485;45.702;11.364;2023-09-12T03:01:51;19.10;99.90
53599;DHT22;39485;45.702;11.364;2023-09-12T03:04:17;19.00;99.90
53599;DHT22;39485;45.702;11.364;2023-09-12T03:06:43;19.00;99.90
53599;DHT22;39485;45.702;11.364;2023-09-12T03:09:09;19.00;99.90
53599;DHT22;39485;45.702;11.364;2023-09-12T03:11:36;19.00;99.90
53599;DHT22;39485;45.702;11.364;2023-09-12T03:14:02;19.00;99.90
53599;DHT22;39485;45.702;11.364;2023-09-12T03:16:28;19.00;99.90
53599;DHT22;39485;45.702;11.364;2023-09-12T03:18:53;19.00;99.90
53599;DHT22;39485;45.702;11.364;2023-09-12T03:21:19;19.00;99.90
53599;DHT22;39485;45.702;11.364;2023-09-12T03:23:45;19.00;99.90
53599;DHT22;39485;45.702;11.364;2023-09-12T03:26:10;19.00;99.90
53599;DHT22;39485;45.702;11.364;2023-09-12T03:28:36;18.90;99.90
53599;DHT22;39485;45.702;11.364;2023-09-12T03:31:10;18.90;99.90
53599;DHT22;39485;45.702;11.364;2023-09-12T03:33:37;18.90;99.90
53599;DHT22;39485;45.702;11.364;2023-09-12T03:36:04;18.90;99.90
53599;DHT22;39485;45.702;11.364;2023-09-12T03:38:30;18.90;99.90
53599;DHT22;39485;45.702;11.364;2023-09-12T03:40:55;18.90;99.90
53599;DHT22;39485;45.702;11.364;2023-09-12T03:43:21;18.90;99.90
53599;DHT22;39485;45.702;11.364;2023-09-12T03:45:47;18.80;99.90
53599;DHT22;39485;45.702;11.364;2023-09-12T03:48:12;18.90;99.90
53599;DHT22;39485;45.702;11.364;2023-09-12T03:50:38;18.80;99.90
53599;DHT22;39485;45.702;11.364;2023-09-12T03:53:04;18.80;99.90
53599;DHT22;39485;45.702;11.364;2023-09-12T03:55:29;18.80;99.90
53599;DHT22;39485;45.702;11.364;2023-09-12T03:57:55;18.80;99.90
53599;DHT22;39485;45.702;11.364;2023-09-12T04:00:21;18.80;99.90
53599;DHT22;39485;45.702;11.364;2023-09-12T04:02:46;18.80;99.90
53599;DHT22;39485;45.702;11.364;2023-09-12T04:05:13;18.80;99.90
53599;DHT22;39485;45.702;11.364;2023-09-12T04:07:39;18.80;99.90
53599;DHT22;39485;45.702;11.364;2023-09-12T04:10:05;18.80;99.90
53599;DHT22;39485;45.702;11.364;2023-09-12T04:12:31;18.80;99.90
53599;DHT22;39485;45.702;11.364;2023-09-12T04:14:56;18.80;99.90
53599;DHT22;39485;45.702;11.364;2023-09-12T04:17:22;18.80;99.90
53599;DHT22;39485;45.702;11.364;2023-09-12T04:19:48;18.80;99.90
53599;DHT22;39485;45.702;11.364;2023-09-12T04:22:14;18.80;99.90
53599;DHT22;39485;45.702;11.364;2023-09-12T04:24:39;18.70;99.90
53599;DHT22;39485;45.702;11.364;2023-09-12T04:27:05;18.70;99.90
53599;DHT22;39485;45.702;11.364;2023-09-12T04:29:33;18.70;99.90
53599;DHT22;39485;45.702;11.364;2023-09-12T04:31:59;18.70;99.90
53599;DHT22;39485;45.702;11.364;2023-09-12T04:34:25;18.70;99.90
53599;DHT22;39485;45.702;11.364;2023-09-12T04:36:52;18.70;99.90
53599;DHT22;39485;45.702;11.364;2023-09-12T04:39:18;18.70;99.90
53599;DHT22;39485;45.702;11.364;2023-09-12T04:41:44;18.60;99.90
53599;DHT22;39485;45.702;11.364;2023-09-12T04:44:10;18.60;99.90
53599;DHT22;39485;45.702;11.364;2023-09-12T04:46:36;18.70;99.90
53599;DHT22;39485;45.702;11.364;2023-09-12T04:49:03;18.60;99.90
53599;DHT22;39485;45.702;11.364;2023-09-12T04:51:29;18.60;99.90
53599;DHT22;39485;45.702;11.364;2023-09-12T04:53:54;18.60;99.90
53599;DHT22;39485;45.702;11.364;2023-09-12T04:56:20;18.60;99.90
53599;DHT22;39485;45.702;11.364;2023-09-12T04:58:46;18.60;99.90
53599;DHT22;39485;45.702;11.364;2023-09-12T05:01:12;18.60;99.90
53599;DHT22;39485;45.702;11.364;2023-09-12T05:03:37;18.60;99.90
53599;DHT22;39485;45.702;11.364;2023-09-12T05:06:03;18.60;99.90
53599;DHT22;39485;45.702;11.364;2023-09-12T05:08:29;18.60;99.90
53599;DHT22;39485;45.702;11.364;2023-09-12T05:10:55;18.70;99.90
53599;DHT22;39485;45.702;11.364;2023-09-12T05:13:21;18.60;99.90
53599;DHT22;39485;45.702;11.364;2023-09-12T05:15:47;18.70;99.90
53599;DHT22;39485;45.702;11.364;2023-09-12T05:18:12;18.70;99.90
53599;DHT22;39485;45.702;11.364;2023-09-12T05:20:38;18.70;99.90
53599;DHT22;39485;45.702;11.364;2023-09-12T05:23:04;18.80;99.90
53599;DHT22;39485;45.702;11.364;2023-09-12T05:25:30;18.80;99.90
53599;DHT22;39485;45.702;11.364;2023-09-12T05:27:55;18.80;99.90
53599;DHT22;39485;45.702;11.364;2023-09-12T05:30:21;18.90;99.90
53599;DHT22;39485;45.702;11.364;2023-09-12T05:32:47;18.90;99.90
53599;DHT22;39485;45.702;11.364;2023-09-12T05:35:13;18.90;99.90
53599;DHT22;39485;45.702;11.364;2023-09-12T05:37:38;18.90;99.90
53599;DHT22;39485;45.702;11.364;2023-09-12T05:40:05;19.00;99.90
53599;DHT22;39485;45.702;11.364;2023-09-12T05:42:31;19.00;99.90
53599;DHT22;39485;45.702;11.364;2023-09-12T05:44:57;19.10;99.90
53599;DHT22;39485;45.702;11.364;2023-09-12T05:47:23;19.10;99.90
53599;DHT22;39485;45.702;11.364;2023-09-12T05:49:49;19.10;99.90
53599;DHT22;39485;45.702;11.364;2023-09-12T05:52:15;19.20;99.90
53599;DHT22;39485;45.702;11.364;2023-09-12T05:54:41;19.20;99.90
53599;DHT22;39485;45.702;11.364;2023-09-12T05:57:08;19.30;99.90
53599;DHT22;39485;45.702;11.364;2023-09-12T05:59:38;19.30;99.90
53599;DHT22;39485;45.702;11.364;2023-09-12T06:02:06;19.40;99.90
53599;DHT22;39485;45.702;11.364;2023-09-12T06:04:33;19.40;99.90
53599;DHT22;39485;45.702;11.364;2023-09-12T06:06:59;19.50;99.90
53599;DHT22;39485;45.702;11.364;2023-09-12T06:09:25;19.50;99.90
53599;DHT22;39485;45.702;11.364;2023-09-12T06:11:50;19.60;99.90
53599;DHT22;39485;45.702;11.364;2023-09-12T06:14:16;19.60;99.90
53599;DHT22;39485;45.702;11.364;2023-09-12T06:16:42;19.70;99.90
53599;DHT22;39485;45.702;11.364;2023-09-12T06:19:07;19.80;99.90
53599;DHT22;39485;45.702;11.364;2023-09-12T06:21:33;19.90;99.90
53599;DHT22;39485;45.702;11.364;2023-09-12T06:24:11;19.90;99.90
53599;DHT22;39485;45.702;11.364;2023-09-12T06:26:37;20.00;99.90
53599;DHT22;39485;45.702;11.364;2023-09-12T06:29:03;20.10;99.90
53599;DHT22;39485;45.702;11.364;2023-09-12T06:31:29;20.10;99.90
53599;DHT22;39485;45.702;11.364;2023-09-12T06:33:54;20.20;99.90
53599;DHT22;39485;45.702;11.364;2023-09-12T06:36:20;20.30;99.90
53599;DHT22;39485;45.702;11.364;2023-09-12T06:38:46;20.30;99.90
53599;DHT22;39485;45.702;11.364;2023-09-12T06:41:11;20.40;99.90
53599;DHT22;39485;45.702;11.364;2023-09-12T06:43:37;20.50;99.90
53599;DHT22;39485;45.702;11.364;2023-09-12T06:46:03;20.60;99.90
53599;DHT22;39485;45.702;11.364;2023-09-12T06:48:28;20.70;99.90
53599;DHT22;39485;45.702;11.364;2023-09-12T06:50:54;20.80;99.90
53599;DHT22;39485;45.702;11.364;2023-09-12T06:53:20;20.90;99.90
53599;DHT22;39485;45.702;11.364;2023-09-12T06:55:46;21.00;99.90
53599;DHT22;39485;45.702;11.364;2023-09-12T06:58:12;21.00;99.90
53599;DHT22;39485;45.702;11.364;2023-09-12T07:00:41;21.10;99.90
53599;DHT22;39485;45.702;11.364;2023-09-12T07:03:07;21.20;99.90
53599;DHT22;39485;45.702;11.364;2023-09-12T07:05:36;21.30;99.90
53599;DHT22;39485;45.702;11.364;2023-09-12T07:08:04;21.40;99.90
53599;DHT22;39485;45.702;11.364;2023-09-12T07:10:30;21.40;99.90
53599;DHT22;39485;45.702;11.364;2023-09-12T07:12:55;21.50;99.90
53599;DHT22;39485;45.702;11.364;2023-09-12T07:15:21;21.60;99.90
53599;DHT22;39485;45.702;11.364;2023-09-12T07:17:47;21.70;99.90
53599;DHT22;39485;45.702;11.364;2023-09-12T07:20:12;21.70;99.90
53599;DHT22;39485;45.702;11.364;2023-09-12T07:22:39;21.80;99.90
53599;DHT22;39485;45.702;11.364;2023-09-12T07:25:06;21.90;99.90
53599;DHT22;39485;45.702;11.364;2023-09-12T07:27:32;21.90;99.90
53599;DHT22;39485;45.702;11.364;2023-09-12T07:29:58;22.00;99.90
53599;DHT22;39485;45.702;11.364;2023-09-12T07:32:23;22.10;99.90
53599;DHT22;39485;45.702;11.364;2023-09-12T07:34:49;22.10;99.90
53599;DHT22;39485;45.702;11.364;2023-09-12T07:37:15;22.20;99.90
53599;DHT22;39485;45.702;11.364;2023-09-12T07:39:41;22.30;99.90
53599;DHT22;39485;45.702;11.364;2023-09-12T07:42:06;22.40;99.90
53599;DHT22;39485;45.702;11.364;2023-09-12T07:44:32;22.40;99.90
53599;DHT22;39485;45.702;11.364;2023-09-12T07:46:58;22.50;99.90
53599;DHT22;39485;45.702;11.364;2023-09-12T07:49:23;22.50;99.90
53599;DHT22;39485;45.702;11.364;2023-09-12T07:51:51;22.60;99.90
53599;DHT22;39485;45.702;11.364;2023-09-12T07:54:17;22.70;99.90
53599;DHT22;39485;45.702;11.364;2023-09-12T07:56:43;22.70;99.90
53599;DHT22;39485;45.702;11.364;2023-09-12T07:59:09;22.80;99.90
53599;DHT22;39485;45.702;11.364;2023-09-12T08:01:36;22.90;99.90
53599;DHT22;39485;45.702;11.364;2023-09-12T08:04:03;23.00;99.90
53599;DHT22;39485;45.702;11.364;2023-09-12T08:06:29;23.10;99.90
53599;DHT22;39485;45.702;11.364;2023-09-12T08:08:55;23.20;99.90
53599;DHT22;39485;45.702;11.364;2023-09-12T08:11:21;23.30;99.90
53599;DHT22;39485;45.702;11.364;2023-09-12T08:13:49;23.40;99.90
53599;DHT22;39485;45.702;11.364;2023-09-12T08:16:15;23.40;99.90
53599;DHT22;39485;45.702;11.364;2023-09-12T08:18:41;23.50;99.90
53599;DHT22;39485;45.702;11.364;2023-09-12T08:21:07;23.60;99.90
53599;DHT22;39485;45.702;11.364;2023-09-12T08:23:33;23.60;99.90
53599;DHT22;39485;45.702;11.364;2023-09-12T08:25:59;23.80;99.90
53599;DHT22;39485;45.702;11.364;2023-09-12T08:28:25;23.80;99.90
53599;DHT22;39485;45.702;11.364;2023-09-12T08:30:51;23.90;99.90
53599;DHT22;39485;45.702;11.364;2023-09-12T08:33:16;23.90;99.90
53599;DHT22;39485;45.702;11.364;2023-09-12T08:35:42;24.00;99.90
53599;DHT22;39485;45.702;11.364;2023-09-12T08:38:08;24.00;99.90
53599;DHT22;39485;45.702;11.364;2023-09-12T08:40:34;24.10;99.90
53599;DHT22;39485;45.702;11.364;2023-09-12T08:43:01;24.10;99.90
53599;DHT22;39485;45.702;11.364;2023-09-12T08:45:29;24.20;99.90
53599;DHT22;39485;45.702;11.364;2023-09-12T08:47:56;24.20;99.90
53599;DHT22;39485;45.702;11.364;2023-09-12T08:50:22;24.20;99.90
53599;DHT22;39485;45.702;11.364;2023-09-12T08:52:52;24.30;99.90
53599;DHT22;39485;45.702;11.364;2023-09-12T08:55:18;24.30;99.90
53599;DHT22;39485;45.702;11.364;2023-09-12T08:57:44;24.40;99.90
53599;DHT22;39485;45.702;11.364;2023-09-12T09:00:11;24.40;99.90
53599;DHT22;39485;45.702;11.364;2023-09-12T09:02:40;24.30;99.90
53599;DHT22;39485;45.702;11.364;2023-09-12T09:05:07;24.40;99.90
53599;DHT22;39485;45.702;11.364;2023-09-12T09:07:36;24.40;99.90
53599;DHT22;39485;45.702;11.364;2023-09-12T09:10:04;24.40;99.90
53599;DHT22;39485;45.702;11.364;2023-09-12T09:12:33;24.40;99.90
53599;DHT22;39485;45.702;11.364;2023-09-12T09:15:20;24.40;99.90
53599;DHT22;39485;45.702;11.364;2023-09-12T09:17:46;24.60;99.90
53599;DHT22;39485;45.702;11.364;2023-09-12T09:20:29;24.60;99.90
53599;DHT22;39485;45.702;11.364;2023-09-12T09:23:00;24.60;99.90
53599;DHT22;39485;45.702;11.364;2023-09-12T09:25:27;24.70;99.80
53599;DHT22;39485;45.702;11.364;2023-09-12T09:27:53;24.80;99.60
53599;DHT22;39485;45.702;11.364;2023-09-12T09:30:39;24.90;99.50
53599;DHT22;39485;45.702;11.364;2023-09-12T09:33:06;24.90;99.20
53599;DHT22;39485;45.702;11.364;2023-09-12T09:35:31;25.10;99.00
53599;DHT22;39485;45.702;11.364;2023-09-12T09:37:58;25.10;98.90
53599;DHT22;39485;45.702;11.364;2023-09-12T09:40:24;25.20;98.60
53599;DHT22;39485;45.702;11.364;2023-09-12T09:42:59;25.20;98.30
53599;DHT22;39485;45.702;11.364;2023-09-12T09:45:27;25.20;98.20
53599;DHT22;39485;45.702;11.364;2023-09-12T09:47:57;25.30;98.10
53599;DHT22;39485;45.702;11.364;2023-09-12T09:50:24;25.40;97.90
53599;DHT22;39485;45.702;11.364;2023-09-12T09:52:54;25.50;97.70
53599;DHT22;39485;45.702;11.364;2023-09-12T09:55:21;25.50;97.60
53599;DHT22;39485;45.702;11.364;2023-09-12T09:57:47;25.60;97.60
53599;DHT22;39485;45.702;11.364;2023-09-12T10:00:13;25.60;97.50
53599;DHT22;39485;45.702;11.364;2023-09-12T10:02:41;25.60;97.30
53599;DHT22;39485;45.702;11.364;2023-09-12T10:05:09;25.70;97.00
53599;DHT22;39485;45.702;11.364;2023-09-12T10:07:37;25.70;96.60
53599;DHT22;39485;45.702;11.364;2023-09-12T10:10:04;25.60;96.50
53599;DHT22;39485;45.702;11.364;2023-09-12T10:12:36;25.60;96.50
53599;DHT22;39485;45.702;11.364;2023-09-12T10:15:03;25.70;96.60
53599;DHT22;39485;45.702;11.364;2023-09-12T10:17:36;25.80;96.70
53599;DHT22;39485;45.702;11.364;2023-09-12T10:20:15;25.80;96.50
53599;DHT22;39485;45.702;11.364;2023-09-12T10:22:49;25.90;96.50
53599;DHT22;39485;45.702;11.364;2023-09-12T10:25:17;25.90;96.40
53599;DHT22;39485;45.702;11.364;2023-09-12T10:27:43;25.90;96.30
53599;DHT22;39485;45.702;11.364;2023-09-12T10:30:09;26.00;96.20
53599;DHT22;39485;45.702;11.364;2023-09-12T10:32:36;26.00;95.90
53599;DHT22;39485;45.702;11.364;2023-09-12T10:35:03;26.00;96.10
53599;DHT22;39485;45.702;11.364;2023-09-12T10:37:29;26.00;96.00
53599;DHT22;39485;45.702;11.364;2023-09-12T10:39:58;26.00;95.90
53599;DHT22;39485;45.702;11.364;2023-09-12T10:42:27;26.00;95.70
53599;DHT22;39485;45.702;11.364;2023-09-12T10:44:54;26.10;95.40
53599;DHT22;39485;45.702;11.364;2023-09-12T10:47:21;26.10;95.10
53599;DHT22;39485;45.702;11.364;2023-09-12T10:49:48;26.00;95.00
53599;DHT22;39485;45.702;11.364;2023-09-12T10:52:33;26.00;95.10
53599;DHT22;39485;45.702;11.364;2023-09-12T10:55:04;26.00;95.20
53599;DHT22;39485;45.702;11.364;2023-09-12T10:57:33;26.10;95.20
53599;DHT22;39485;45.702;11.364;2023-09-12T11:02:37;26.10;94.90
53599;DHT22;39485;45.702;11.364;2023-09-12T11:05:05;26.20;94.70
53599;DHT22;39485;45.702;11.364;2023-09-12T11:10:16;26.20;94.90
53599;DHT22;39485;45.702;11.364;2023-09-12T11:12:48;26.30;95.00
53599;DHT22;39485;45.702;11.364;2023-09-12T11:15:15;26.30;95.10
53599;DHT22;39485;45.702;11.364;2023-09-12T11:17:45;26.40;95.10
53599;DHT22;39485;45.702;11.364;2023-09-12T11:20:12;26.40;95.00
53599;DHT22;39485;45.702;11.364;2023-09-12T11:22:46;26.40;94.90
53599;DHT22;39485;45.702;11.364;2023-09-12T11:25:23;26.40;94.80
53599;DHT22;39485;45.702;11.364;2023-09-12T11:30:26;26.50;94.80
53599;DHT22;39485;45.702;11.364;2023-09-12T11:32:56;26.50;94.70
53599;DHT22;39485;45.702;11.364;2023-09-12T11:35:24;26.50;94.70
53599;DHT22;39485;45.702;11.364;2023-09-12T11:37:53;26.50;94.60
53599;DHT22;39485;45.702;11.364;2023-09-12T11:40:42;26.60;94.60
53599;DHT22;39485;45.702;11.364;2023-09-12T11:43:27;26.60;94.70
53599;DHT22;39485;45.702;11.364;2023-09-12T11:45:55;26.70;94.70
53599;DHT22;39485;45.702;11.364;2023-09-12T11:48:21;26.70;94.60
53599;DHT22;39485;45.702;11.364;2023-09-12T11:50:51;26.70;94.60
53599;DHT22;39485;45.702;11.364;2023-09-12T11:53:20;26.70;94.50
53599;DHT22;39485;45.702;11.364;2023-09-12T11:55:49;26.70;94.50
53599;DHT22;39485;45.702;11.364;2023-09-12T11:58:17;26.70;94.50
53599;DHT22;39485;45.702;11.364;2023-09-12T12:00:54;26.70;94.60
53599;DHT22;39485;45.702;11.364;2023-09-12T12:03:21;26.80;94.70
53599;DHT22;39485;45.702;11.364;2023-09-12T12:05:48;26.80;94.70
53599;DHT22;39485;45.702;11.364;2023-09-12T12:08:15;26.80;94.60
53599;DHT22;39485;45.702;11.364;2023-09-12T12:10:41;26.80;94.70
53599;DHT22;39485;45.702;11.364;2023-09-12T12:13:17;26.90;94.80
53599;DHT22;39485;45.702;11.364;2023-09-12T12:15:43;26.90;94.70
53599;DHT22;39485;45.702;11.364;2023-09-12T12:18:09;26.90;94.60
53599;DHT22;39485;45.702;11.364;2023-09-12T12:20:35;26.90;94.70
53599;DHT22;39485;45.702;11.364;2023-09-12T12:23:01;26.90;94.70
53599;DHT22;39485;45.702;11.364;2023-09-12T12:25:26;27.00;95.00
53599;DHT22;39485;45.702;11.364;2023-09-12T12:27:56;27.00;94.70
53599;DHT22;39485;45.702;11.364;2023-09-12T12:30:22;27.10;94.70
53599;DHT22;39485;45.702;11.364;2023-09-12T12:32:48;27.10;94.60
53599;DHT22;39485;45.702;11.364;2023-09-12T12:35:21;27.10;94.40
53599;DHT22;39485;45.702;11.364;2023-09-12T12:37:51;27.10;94.40
53599;DHT22;39485;45.702;11.364;2023-09-12T12:40:17;27.10;94.50
53599;DHT22;39485;45.702;11.364;2023-09-12T12:42:44;27.10;94.60
53599;DHT22;39485;45.702;11.364;2023-09-12T12:45:16;27.10;94.60
53599;DHT22;39485;45.702;11.364;2023-09-12T12:47:42;27.20;94.60
53599;DHT22;39485;45.702;11.364;2023-09-12T12:50:14;27.20;94.60
53599;DHT22;39485;45.702;11.364;2023-09-12T12:52:40;27.20;94.50
53599;DHT22;39485;45.702;11.364;2023-09-12T12:55:11;27.20;94.60
53599;DHT22;39485;45.702;11.364;2023-09-12T12:57:38;27.30;94.50
53599;DHT22;39485;45.702;11.364;2023-09-12T13:00:12;27.30;94.30
53599;DHT22;39485;45.702;11.364;2023-09-12T13:02:42;27.30;94.10
53599;DHT22;39485;45.702;11.364;2023-09-12T13:05:28;27.30;93.90
53599;DHT22;39485;45.702;11.364;2023-09-12T13:07:54;27.30;93.90
53599;DHT22;39485;45.702;11.364;2023-09-12T13:10:23;27.40;94.00
53599;DHT22;39485;45.702;11.364;2023-09-12T13:12:52;27.40;94.00
53599;DHT22;39485;45.702;11.364;2023-09-12T13:15:18;27.50;93.90
53599;DHT22;39485;45.702;11.364;2023-09-12T13:17:44;27.50;94.00
53599;DHT22;39485;45.702;11.364;2023-09-12T13:20:10;27.50;93.80
53599;DHT22;39485;45.702;11.364;2023-09-12T13:22:36;27.50;93.60
53599;DHT22;39485;45.702;11.364;2023-09-12T13:25:03;27.60;93.50
53599;DHT22;39485;45.702;11.364;2023-09-12T13:27:29;27.50;93.30
53599;DHT22;39485;45.702;11.364;2023-09-12T13:29:54;27.60;93.40
53599;DHT22;39485;45.702;11.364;2023-09-12T13:32:20;27.60;93.60
53599;DHT22;39485;45.702;11.364;2023-09-12T13:34:46;27.60;93.50
53599;DHT22;39485;45.702;11.364;2023-09-12T13:37:11;27.70;93.40
53599;DHT22;39485;45.702;11.364;2023-09-12T13:39:37;27.70;93.50
53599;DHT22;39485;45.702;11.364;2023-09-12T13:42:05;27.80;93.60
53599;DHT22;39485;45.702;11.364;2023-09-12T13:44:33;27.80;93.40
53599;DHT22;39485;45.702;11.364;2023-09-12T13:46:59;27.80;93.30
53599;DHT22;39485;45.702;11.364;2023-09-12T13:49:25;27.80;93.10
53599;DHT22;39485;45.702;11.364;2023-09-12T13:51:50;27.80;93.30
53599;DHT22;39485;45.702;11.364;2023-09-12T13:54:16;27.90;93.30
53599;DHT22;39485;45.702;11.364;2023-09-12T13:56:42;27.90;93.30
53599;DHT22;39485;45.702;11.364;2023-09-12T13:59:08;27.90;93.20
53599;DHT22;39485;45.702;11.364;2023-09-12T14:01:34;27.90;93.10
53599;DHT22;39485;45.702;11.364;2023-09-12T14:03:59;27.90;93.00
53599;DHT22;39485;45.702;11.364;2023-09-12T14:06:25;27.80;92.70
53599;DHT22;39485;45.702;11.364;2023-09-12T14:08:52;27.80;92.60
53599;DHT22;39485;45.702;11.364;2023-09-12T14:11:18;27.80;92.60
53599;DHT22;39485;45.702;11.364;2023-09-12T14:13:43;27.70;92.40
53599;DHT22;39485;45.702;11.364;2023-09-12T14:16:09;27.70;92.50
53599;DHT22;39485;45.702;11.364;2023-09-12T14:18:35;27.70;92.30
53599;DHT22;39485;45.702;11.364;2023-09-12T14:21:00;27.70;92.30
53599;DHT22;39485;45.702;11.364;2023-09-12T14:23:26;27.70;92.30
53599;DHT22;39485;45.702;11.364;2023-09-12T14:25:52;27.70;92.40
53599;DHT22;39485;45.702;11.364;2023-09-12T14:28:18;27.70;92.40
53599;DHT22;39485;45.702;11.364;2023-09-12T14:30:43;27.70;92.40
53599;DHT22;39485;45.702;11.364;2023-09-12T14:33:13;27.70;92.40
53599;DHT22;39485;45.702;11.364;2023-09-12T14:35:40;27.60;92.40
53599;DHT22;39485;45.702;11.364;2023-09-12T14:38:07;27.70;92.60
53599;DHT22;39485;45.702;11.364;2023-09-12T14:40:33;27.70;92.80
53599;DHT22;39485;45.702;11.364;2023-09-12T14:42:59;27.70;92.50
53599;DHT22;39485;45.702;11.364;2023-09-12T14:45:27;27.70;92.30
53599;DHT22;39485;45.702;11.364;2023-09-12T14:47:52;27.80;92.40
53599;DHT22;39485;45.702;11.364;2023-09-12T14:50:21;27.80;92.50
53599;DHT22;39485;45.702;11.364;2023-09-12T14:52:49;27.80;92.30
53599;DHT22;39485;45.702;11.364;2023-09-12T14:55:15;27.80;92.10
53599;DHT22;39485;45.702;11.364;2023-09-12T14:57:41;27.80;92.10
53599;DHT22;39485;45.702;11.364;2023-09-12T15:00:07;27.70;91.90
53599;DHT22;39485;45.702;11.364;2023-09-12T15:02:33;27.70;91.90
53599;DHT22;39485;45.702;11.364;2023-09-12T15:05:00;27.70;91.90
53599;DHT22;39485;45.702;11.364;2023-09-12T15:07:26;27.60;91.90
53599;DHT22;39485;45.702;11.364;2023-09-12T15:09:52;27.70;91.90
53599;DHT22;39485;45.702;11.364;2023-09-12T15:12:18;27.70;91.90
53599;DHT22;39485;45.702;11.364;2023-09-12T15:14:44;27.70;91.90
53599;DHT22;39485;45.702;11.364;2023-09-12T15:17:09;27.60;92.00
53599;DHT22;39485;45.702;11.364;2023-09-12T15:19:35;27.70;92.00
53599;DHT22;39485;45.702;11.364;2023-09-12T15:22:01;27.70;91.90
53599;DHT22;39485;45.702;11.364;2023-09-12T15:24:26;27.60;91.80
53599;DHT22;39485;45.702;11.364;2023-09-12T15:26:52;27.60;91.90